createdAt,value
2018-11-11T00:02:02.187Z,97976.31
2018-11-11T00:05:08.762Z,97977.86
2018-11-11T00:08:14.708Z,97982.39
2018-11-11T00:11:20.442Z,97981.77
2018-11-11T00:14:27.457Z,97992.94
2018-11-11T00:17:32.513Z,97983.92
2018-11-11T00:20:37.715Z,97979.75
2018-11-11T00:23:42.768Z,97986.66
2018-11-11T00:26:49.557Z,97983.93
2018-11-11T00:29:56.741Z,97988.30
2018-11-11T00:33:01.783Z,97978.78
2018-11-11T00:36:06.942Z,97972.09
2018-11-11T00:39:11.999Z,97981.45
2018-11-11T00:42:17.056Z,97982.17
2018-11-11T00:45:23.633Z,97981.47
2018-11-11T00:48:28.676Z,97990.27
2018-11-11T00:51:33.724Z,97990.01
2018-11-11T00:54:38.838Z,97992.89
2018-11-11T00:57:45.792Z,97999.95
2018-11-11T01:00:50.782Z,98012.70
2018-11-11T01:03:57.318Z,98015.53
2018-11-11T01:07:04.125Z,98019.81
2018-11-11T01:10:11.761Z,98031.80
2018-11-11T01:13:18.931Z,98027.03
2018-11-11T01:16:25.955Z,98026.20
2018-11-11T01:19:30.999Z,98034.43
2018-11-11T01:22:37.997Z,98035.00
2018-11-11T01:25:44.571Z,98037.52
2018-11-11T01:28:49.562Z,98036.02
2018-11-11T01:31:54.854Z,98031.34
2018-11-11T01:34:59.873Z,98032.64
2018-11-11T01:38:05.328Z,98020.83
2018-11-11T01:41:10.431Z,98014.67
2018-11-11T01:44:17.158Z,98015.49
2018-11-11T01:47:22.443Z,98005.28
2018-11-11T01:50:29.001Z,98015.13
2018-11-11T01:53:33.988Z,98021.67
2018-11-11T01:56:39.024Z,98026.91
2018-11-11T01:59:44.014Z,98029.75
2018-11-11T02:02:50.690Z,98040.67
2018-11-11T02:05:55.646Z,98029.75
2018-11-11T02:09:00.921Z,98032.84
2018-11-11T02:12:05.978Z,98030.27
2018-11-11T02:15:15.371Z,98023.01
2018-11-11T02:18:20.477Z,98030.98
2018-11-11T02:21:25.472Z,98021.67
2018-11-11T02:24:30.499Z,98018.84
2018-11-11T02:27:35.489Z,98024.08
2018-11-11T02:30:40.518Z,98027.70
2018-11-11T02:33:45.497Z,98014.20
2018-11-11T02:36:50.529Z,98017.75
2018-11-11T02:39:55.515Z,98009.97
2018-11-11T02:43:00.513Z,98008.21
2018-11-11T02:46:05.501Z,98014.39
2018-11-11T02:49:10.477Z,98008.37
2018-11-11T02:52:15.494Z,98012.19
2018-11-11T02:55:20.503Z,98012.91
2018-11-11T02:58:25.520Z,98018.22
2018-11-11T03:01:30.504Z,98007.51
2018-11-11T03:04:36.033Z,98009.36
2018-11-11T03:07:40.952Z,98001.75
2018-11-11T03:10:47.713Z,98007.36
2018-11-11T03:13:52.724Z,98013.17
2018-11-11T03:16:59.365Z,98010.44
2018-11-11T03:20:04.598Z,98002.31
2018-11-11T03:23:09.601Z,98010.23
2018-11-11T03:26:16.173Z,98006.17
2018-11-11T03:29:21.206Z,97984.91
2018-11-11T03:32:26.219Z,97983.81
2018-11-11T03:35:31.206Z,97987.27
2018-11-11T03:38:37.862Z,97981.56
2018-11-11T03:41:50.478Z,97983.63
2018-11-11T03:44:55.473Z,97971.11
2018-11-11T03:48:00.486Z,97966.53
2018-11-11T03:51:05.761Z,97970.81
2018-11-11T03:54:10.754Z,97976.37
2018-11-11T03:57:17.305Z,97981.11
2018-11-11T04:00:22.357Z,97973.95
2018-11-11T04:03:27.359Z,97972.98
2018-11-11T04:06:32.362Z,97974.67
2018-11-11T04:09:37.354Z,97960.00
2018-11-11T04:12:42.644Z,97963.80
2018-11-11T04:15:49.606Z,97966.18
2018-11-11T04:18:54.610Z,97971.52
2018-11-11T04:22:06.994Z,97964.11
2018-11-11T04:25:14.393Z,97961.34
2018-11-11T04:28:19.515Z,97967.04
2018-11-11T04:31:24.506Z,97972.15
2018-11-11T04:34:29.493Z,97983.92
2018-11-11T04:37:34.500Z,97985.22
2018-11-11T04:40:39.517Z,97988.77
2018-11-11T04:43:44.701Z,97995.87
2018-11-11T04:46:49.709Z,98000.20
2018-11-11T04:49:54.717Z,97997.56
2018-11-11T04:52:59.717Z,97995.30
2018-11-11T04:56:04.862Z,98008.58
2018-11-11T04:59:09.970Z,98014.30
2018-11-11T05:02:14.946Z,98013.06
2018-11-11T05:05:19.916Z,98014.80
2018-11-11T05:08:24.907Z,98019.39
2018-11-11T05:15:15.242Z,98037.31
2018-11-11T05:18:20.269Z,98035.78
2018-11-11T05:21:25.235Z,98044.12
2018-11-11T05:24:30.209Z,98041.34
2018-11-11T05:27:35.187Z,98055.35
2018-11-11T05:30:40.153Z,98063.67
2018-11-11T05:33:45.128Z,98066.17
2018-11-11T05:36:50.100Z,98072.03
2018-11-11T05:39:55.091Z,98067.59
2018-11-11T05:43:00.062Z,98084.95
2018-11-11T05:46:05.061Z,98096.55
2018-11-11T05:49:10.052Z,98109.11
2018-11-11T05:52:15.090Z,98124.30
2018-11-11T05:55:20.056Z,98129.67
2018-11-11T05:58:25.042Z,98129.84
2018-11-11T06:01:30.066Z,98132.66
2018-11-11T06:04:35.031Z,98128.00
2018-11-11T06:07:39.991Z,98106.62
2018-11-11T06:10:44.975Z,98079.14
2018-11-11T06:13:49.982Z,98079.03
2018-11-11T06:16:57.217Z,98094.25
2018-11-11T06:20:04.466Z,98078.06
2018-11-11T06:23:11.141Z,98078.16
2018-11-11T06:26:17.771Z,98073.23
2018-11-11T06:29:24.766Z,98070.48
2018-11-11T06:32:31.761Z,98073.04
2018-11-11T06:35:36.827Z,98078.08
2018-11-11T06:38:41.899Z,98079.28
2018-11-11T06:41:49.113Z,98086.88
2018-11-11T06:44:56.261Z,98091.47
2018-11-11T06:48:03.375Z,98101.98
2018-11-11T06:51:10.013Z,98106.55
2018-11-11T06:54:15.147Z,98110.10
2018-11-11T06:57:22.817Z,98110.30
2018-11-11T07:00:31.518Z,98110.19
2018-11-11T07:03:59.658Z,98112.29
2018-11-11T07:07:05.919Z,98116.08
2018-11-11T07:10:15.226Z,98114.39
2018-11-11T07:13:21.946Z,98119.05
2018-11-11T07:16:30.985Z,98119.41
2018-11-11T07:19:37.929Z,98124.07
2018-11-11T07:22:44.884Z,98139.36
2018-11-11T07:25:51.995Z,98148.77
2018-11-11T07:28:57.158Z,98154.77
2018-11-11T07:32:03.810Z,98155.09
2018-11-11T07:35:09.700Z,98174.03
2018-11-11T07:38:14.853Z,98176.12
2018-11-11T07:41:21.968Z,98177.67
2018-11-11T07:44:27.067Z,98184.31
2018-11-11T07:47:36.289Z,98176.39
2018-11-11T07:50:44.902Z,98200.91
2018-11-11T07:53:52.537Z,98202.89
2018-11-11T07:56:57.582Z,98208.50
2018-11-11T08:00:07.521Z,98213.82
2018-11-11T08:03:12.564Z,98206.11
2018-11-11T08:06:17.691Z,98216.84
2018-11-11T08:09:22.846Z,98222.67
2018-11-11T08:12:27.999Z,98227.50
2018-11-11T08:15:33.058Z,98222.40
2018-11-11T08:19:43.231Z,98225.66
2018-11-11T08:22:49.490Z,98226.08
2018-11-11T08:25:54.553Z,98222.70
2018-11-11T08:28:59.634Z,98210.53
2018-11-11T08:32:05.849Z,98210.91
2018-11-11T08:35:13.021Z,98203.80
2018-11-11T08:38:22.322Z,98206.62
2018-11-11T08:41:29.286Z,98213.87
2018-11-11T08:44:34.283Z,98221.73
2018-11-11T08:47:39.436Z,98228.28
2018-11-11T08:50:44.454Z,98219.64
2018-11-11T08:53:49.466Z,98225.80
2018-11-11T08:56:54.477Z,98238.12
2018-11-11T08:59:59.518Z,98236.60
2018-11-11T09:03:05.334Z,98229.09
2018-11-11T09:06:10.378Z,98221.09
2018-11-11T09:09:17.070Z,98220.02
2018-11-11T09:12:22.197Z,98231.48
2018-11-11T09:15:28.970Z,98223.24
2018-11-11T09:18:36.154Z,98213.90
2018-11-11T09:21:43.274Z,98209.14
2018-11-11T09:24:52.245Z,98212.84
2018-11-11T09:27:57.402Z,98210.33
2018-11-11T09:31:02.719Z,98215.23
2018-11-11T09:34:26.069Z,98208.75
2018-11-11T09:37:31.098Z,98210.09
2018-11-11T09:40:36.395Z,98210.06
2018-11-11T09:43:41.346Z,98207.33
2018-11-11T09:46:46.571Z,98215.72
2018-11-11T09:49:51.638Z,98205.81
2018-11-11T09:52:56.721Z,98213.38
2018-11-11T09:56:01.774Z,98214.06
2018-11-11T09:59:06.826Z,98212.69
2018-11-11T10:02:12.004Z,98212.46
2018-11-11T10:05:23.623Z,98215.04
2018-11-11T10:08:40.499Z,98216.45
2018-11-11T10:12:24.562Z,98219.12
2018-11-11T10:15:49.316Z,98216.63
2018-11-11T10:18:59.525Z,98205.53
2018-11-11T10:22:13.569Z,98216.16
2018-11-11T10:25:24.439Z,98211.00
2018-11-11T10:28:38.068Z,98218.82
2018-11-11T10:32:03.610Z,98219.66
2018-11-11T10:35:29.837Z,98210.78
2018-11-11T10:38:41.409Z,98212.27
2018-11-11T10:41:50.867Z,98204.22
2018-11-11T10:44:59.484Z,98208.06
2018-11-11T10:48:05.877Z,98203.45
2018-11-11T10:51:10.909Z,98212.00
2018-11-11T10:54:15.929Z,98223.98
2018-11-11T10:57:20.915Z,98219.02
2018-11-11T11:00:26.884Z,98243.95
2018-11-11T11:03:33.143Z,98227.52
2018-11-11T11:06:43.882Z,98223.59
2018-11-11T11:09:49.317Z,98218.66
2018-11-11T11:12:54.346Z,98226.16
2018-11-11T11:15:59.397Z,98227.43
2018-11-11T11:19:04.624Z,98241.93
2018-11-11T11:22:09.666Z,98224.87
2018-11-11T11:25:14.657Z,98234.04
2018-11-11T11:28:19.634Z,98245.22
2018-11-11T11:31:27.410Z,98252.86
2018-11-11T11:34:32.345Z,98248.30
2018-11-11T11:37:38.025Z,98232.13
2018-11-11T11:40:43.066Z,98243.80
2018-11-11T11:43:48.165Z,98257.23
2018-11-11T11:46:53.155Z,98256.43
2018-11-11T11:49:58.187Z,98260.66
2018-11-11T11:53:03.279Z,98246.16
2018-11-11T11:56:08.222Z,98253.32
2018-11-11T11:59:13.197Z,98259.73
2018-11-11T12:02:18.246Z,98265.60
2018-11-11T12:05:23.227Z,98276.44
2018-11-11T12:08:28.288Z,98300.42
2018-11-11T12:15:10.359Z,98293.27
2018-11-11T12:18:15.378Z,98297.02
2018-11-11T12:21:20.404Z,98300.02
2018-11-11T12:24:25.365Z,98310.59
2018-11-11T12:27:30.371Z,98316.20
2018-11-11T12:30:35.436Z,98312.85
2018-11-11T12:33:42.265Z,98320.75
2018-11-11T12:36:47.288Z,98320.34
2018-11-11T12:39:52.439Z,98315.08
2018-11-11T12:42:59.062Z,98312.15
2018-11-11T12:46:14.020Z,98310.17
2018-11-11T12:49:19.054Z,98309.00
2018-11-11T12:52:24.044Z,98306.86
2018-11-11T12:55:29.089Z,98318.91
2018-11-11T12:58:34.069Z,98305.14
2018-11-11T13:05:12.235Z,98292.65
2018-11-11T13:08:17.264Z,98293.75
2018-11-11T13:11:22.318Z,98285.40
2018-11-11T13:14:28.065Z,98292.74
2018-11-11T13:17:33.304Z,98286.98
2018-11-11T13:20:38.406Z,98276.67
2018-11-11T13:23:43.450Z,98266.45
2018-11-11T13:26:48.821Z,98266.89
2018-11-11T13:29:56.038Z,98258.19
2018-11-11T13:33:03.171Z,98254.92
2018-11-11T13:36:09.378Z,98250.53
2018-11-11T13:39:14.463Z,98250.39
2018-11-11T13:42:29.218Z,98249.94
2018-11-11T13:45:36.015Z,98261.71
2018-11-11T13:48:43.023Z,98267.83
2018-11-11T13:51:48.105Z,98273.36
2018-11-11T13:54:53.130Z,98279.28
2018-11-11T13:58:01.992Z,98280.49
2018-11-11T14:01:07.085Z,98271.41
2018-11-11T14:04:12.117Z,98254.94
2018-11-11T14:07:17.204Z,98253.95
2018-11-11T14:10:22.266Z,98261.11
2018-11-11T14:13:29.281Z,98257.38
2018-11-11T14:16:40.817Z,98258.83
2018-11-11T14:19:47.470Z,98255.73
2018-11-11T14:22:54.545Z,98265.42
2018-11-11T14:25:59.610Z,98251.96
2018-11-11T14:29:05.340Z,98255.24
2018-11-11T14:32:12.575Z,98263.73
2018-11-11T14:35:17.568Z,98252.47
2018-11-11T14:38:22.679Z,98249.62
2018-11-11T14:45:00.274Z,98254.42
2018-11-11T14:48:10.110Z,98260.88
2018-11-11T14:51:16.909Z,98262.13
2018-11-11T14:54:24.020Z,98268.33
2018-11-11T14:57:29.015Z,98268.53
2018-11-11T15:00:36.105Z,98268.98
2018-11-11T15:03:41.218Z,98266.98
2018-11-11T15:06:48.333Z,98267.25
2018-11-11T15:16:55.126Z,98257.00
2018-11-11T15:20:00.235Z,98246.08
2018-11-11T15:23:05.816Z,98252.42
2018-11-11T15:26:10.802Z,98263.20
2018-11-11T15:29:15.978Z,98273.61
2018-11-11T15:32:20.958Z,98284.22
2018-11-11T15:35:25.967Z,98283.99
2018-11-11T15:38:31.263Z,98286.70
2018-11-11T15:41:36.313Z,98288.25
2018-11-11T15:44:41.301Z,98285.87
2018-11-11T15:47:46.298Z,98301.53
2018-11-11T15:50:51.306Z,98307.93
2018-11-11T15:53:56.292Z,98307.68
2018-11-11T15:57:01.811Z,98312.16
2018-11-11T16:00:10.488Z,98307.00
2018-11-11T16:03:15.479Z,98294.70
2018-11-11T16:06:20.658Z,98301.05
2018-11-11T16:09:27.348Z,98308.85
2018-11-11T16:12:32.622Z,98314.38
2018-11-11T16:15:39.046Z,98319.78
2018-11-11T16:18:44.078Z,98328.80
2018-11-11T16:21:49.151Z,98332.95
2018-11-11T16:24:54.179Z,98331.67
2018-11-11T16:27:59.285Z,98339.11
2018-11-11T16:31:04.951Z,98335.50
2018-11-11T16:34:10.051Z,98343.80
2018-11-11T16:37:15.088Z,98341.78
2018-11-11T16:40:21.711Z,98353.38
2018-11-11T16:43:26.724Z,98350.02
2018-11-11T16:46:31.739Z,98351.53
2018-11-11T16:49:37.018Z,98352.00
2018-11-11T16:52:43.042Z,98341.05
2018-11-11T16:55:48.107Z,98346.66
2018-11-11T16:58:53.136Z,98344.30
2018-11-11T17:01:58.168Z,98349.84
2018-11-11T17:05:03.229Z,98350.04
2018-11-11T17:08:08.260Z,98344.98
2018-11-11T17:11:13.345Z,98337.67
2018-11-11T17:14:19.004Z,98337.56
2018-11-11T17:17:24.161Z,98343.67
2018-11-11T17:20:29.454Z,98340.49
2018-11-11T17:23:34.540Z,98348.59
2018-11-11T17:26:39.791Z,98341.22
2018-11-11T17:29:44.855Z,98345.52
2018-11-11T17:32:50.648Z,98345.38
2018-11-11T17:35:58.315Z,98348.05
2018-11-11T17:39:07.791Z,98345.28
2018-11-11T17:42:12.790Z,98345.25
2018-11-11T17:45:18.210Z,98343.62
2018-11-11T17:48:23.261Z,98354.14
2018-11-11T17:51:28.328Z,98352.44
2018-11-11T17:54:33.347Z,98348.73
2018-11-11T17:57:38.357Z,98347.89
2018-11-11T18:00:43.527Z,98347.63
2018-11-11T18:03:48.746Z,98349.77
2018-11-11T18:06:53.855Z,98355.73
2018-11-11T18:09:58.879Z,98355.12
2018-11-11T18:13:04.638Z,98353.93
2018-11-11T18:16:09.732Z,98355.63
2018-11-11T18:19:15.341Z,98348.13
2018-11-11T18:22:20.567Z,98358.50
2018-11-11T18:25:25.603Z,98362.95
2018-11-11T18:28:30.872Z,98367.05
2018-11-11T18:31:36.699Z,98373.30
2018-11-11T18:34:41.689Z,98375.47
2018-11-11T18:37:46.770Z,98371.23
2018-11-11T18:40:51.810Z,98371.43
2018-11-11T18:43:56.931Z,98375.74
2018-11-11T18:47:01.991Z,98376.02
2018-11-11T18:50:12.580Z,98379.75
2018-11-11T18:53:17.682Z,98381.03
2018-11-11T18:56:22.593Z,98385.78
2018-11-11T18:59:27.985Z,98391.65
2018-11-11T19:02:32.998Z,98391.85
2018-11-11T19:05:38.042Z,98393.85
2018-11-11T19:08:43.101Z,98390.02
2018-11-11T19:11:48.125Z,98390.66
2018-11-11T19:14:53.174Z,98379.14
2018-11-11T19:17:58.221Z,98384.13
2018-11-11T19:21:03.348Z,98374.83
2018-11-11T19:24:08.572Z,98377.41
2018-11-11T19:27:13.586Z,98375.41
2018-11-11T19:30:19.766Z,98382.96
2018-11-11T19:33:24.739Z,98388.08
2018-11-11T19:36:29.747Z,98380.70
2018-11-11T19:39:35.040Z,98379.21
2018-11-11T19:42:40.557Z,98382.47
2018-11-11T19:45:45.882Z,98394.66
2018-11-11T19:48:51.054Z,98399.31
2018-11-11T19:51:56.050Z,98392.92
2018-11-11T19:55:02.857Z,98396.42
2018-11-11T19:58:08.037Z,98408.99
2018-11-11T20:01:13.085Z,98397.70
2018-11-11T20:04:18.229Z,98405.48
2018-11-11T20:07:23.249Z,98398.11
2018-11-11T20:10:29.010Z,98397.70
2018-11-11T20:13:34.011Z,98405.08
2018-11-11T20:16:39.226Z,98409.45
2018-11-11T20:19:44.406Z,98416.63
2018-11-11T20:26:20.218Z,98439.36
2018-11-11T20:29:25.252Z,98446.70
2018-11-11T20:32:30.312Z,98449.17
2018-11-11T20:35:35.449Z,98459.81
2018-11-11T20:38:40.469Z,98449.53
2018-11-11T20:41:45.659Z,98454.39
2018-11-11T20:44:50.863Z,98464.76
2018-11-11T20:47:55.891Z,98460.31
2018-11-11T20:51:00.902Z,98460.39
2018-11-11T20:54:06.050Z,98453.63
2018-11-11T20:57:11.045Z,98470.91
2018-11-11T21:00:17.579Z,98483.68
2018-11-11T21:03:22.651Z,98490.20
2018-11-11T21:06:27.630Z,98501.20
2018-11-11T21:09:32.951Z,98508.55
2018-11-11T21:15:02.849Z,98522.36
2018-11-11T21:18:07.902Z,98525.27
2018-11-11T21:21:12.972Z,98528.31
2018-11-11T21:24:18.222Z,98525.67
2018-11-11T21:27:23.239Z,98538.81
2018-11-11T21:30:29.541Z,98538.34
2018-11-11T21:33:34.539Z,98541.08
2018-11-11T21:36:39.547Z,98550.41
2018-11-11T21:39:58.369Z,98555.11
2018-11-11T21:43:03.602Z,98558.35
2018-11-11T21:46:10.288Z,98555.61
2018-11-11T21:49:15.390Z,98555.86
2018-11-11T21:52:20.406Z,98553.37
2018-11-11T21:55:25.445Z,98551.73
2018-11-11T21:58:30.452Z,98554.16
2018-11-11T22:01:35.473Z,98561.45
2018-11-11T22:04:40.490Z,98564.50
2018-11-11T22:07:45.487Z,98568.17
2018-11-11T22:10:51.068Z,98562.92
2018-11-11T22:20:58.032Z,98584.59
2018-11-11T22:24:03.282Z,98584.48
2018-11-11T22:27:08.278Z,98567.30
2018-11-11T22:30:13.337Z,98572.61
2018-11-11T22:33:18.367Z,98584.36
2018-11-11T22:36:23.383Z,98588.34
2018-11-11T22:39:28.375Z,98584.50
2018-11-11T22:42:33.705Z,98587.92
2018-11-11T22:45:38.639Z,98583.59
2018-11-11T22:48:43.668Z,98591.54
2018-11-11T22:51:48.856Z,98591.62
2018-11-11T22:54:53.878Z,98593.23
2018-11-11T22:57:58.999Z,98592.73
2018-11-11T23:04:07.175Z,98603.48
2018-11-11T23:07:12.327Z,98599.66
2018-11-11T23:10:17.312Z,98612.67
2018-11-11T23:13:29.110Z,98604.02
2018-11-11T23:16:34.105Z,98608.16
2018-11-11T23:19:39.153Z,98596.77
2018-11-11T23:22:44.198Z,98588.73
2018-11-11T23:25:56.543Z,98589.98
2018-11-11T23:29:01.566Z,98593.13
2018-11-11T23:32:06.549Z,98598.63
2018-11-11T23:35:11.538Z,98600.47
2018-11-11T23:38:16.518Z,98610.88
2018-11-11T23:41:21.504Z,98608.26
2018-11-11T23:44:26.493Z,98609.50
2018-11-11T23:47:31.530Z,98613.61
2018-11-11T23:50:36.525Z,98610.88
2018-11-11T23:53:41.535Z,98617.24
2018-11-11T23:56:46.524Z,98623.00
2018-11-11T23:59:51.542Z,98624.89
